sensor_id;sensor_type;location;lat;lon;timestamp;temperature;humidity
64599;SHT31;51008;51.504;11.548;2023-01-10T00:00:08;4.87;92.85
64599;SHT31;51008;51.504;11.548;2023-01-10T00:05:10;4.83;92.84
64599;SHT31;51008;51.504;11.548;2023-01-10T00:10:11;4.85;92.99
64599;SHT31;51008;51.504;11.548;2023-01-10T00:15:12;4.81;92.83
64599;SHT31;51008;51.504;11.548;2023-01-10T00:20:13;4.85;92.76
64599;SHT31;51008;51.504;11.548;2023-01-10T00:25:15;4.92;92.48
64599;SHT31;51008;51.504;11.548;2023-01-10T00:30:16;4.96;92.48
64599;SHT31;51008;51.504;11.548;2023-01-10T00:35:17;4.96;92.97
64599;SHT31;51008;51.504;11.548;2023-01-10T00:40:18;4.94;93.09
64599;SHT31;51008;51.504;11.548;2023-01-10T00:45:19;4.87;93.23
64599;SHT31;51008;51.504;11.548;2023-01-10T00:50:20;4.81;93.40
64599;SHT31;51008;51.504;11.548;2023-01-10T00:55:21;4.74;93.36
64599;SHT31;51008;51.504;11.548;2023-01-10T01:00:22;4.68;93.34
64599;SHT31;51008;51.504;11.548;2023-01-10T01:05:23;4.67;93.37
64599;SHT31;51008;51.504;11.548;2023-01-10T01:10:24;4.71;93.51
64599;SHT31;51008;51.504;11.548;2023-01-10T01:15:26;4.67;93.80
64599;SHT31;51008;51.504;11.548;2023-01-10T01:20:27;4.70;93.75
64599;SHT31;51008;51.504;11.548;2023-01-10T01:25:28;4.63;93.61
64599;SHT31;51008;51.504;11.548;2023-01-10T01:30:29;4.50;93.73
64599;SHT31;51008;51.504;11.548;2023-01-10T01:35:30;4.50;94.59
64599;SHT31;51008;51.504;11.548;2023-01-10T01:40:31;4.54;94.65
64599;SHT31;51008;51.504;11.548;2023-01-10T01:45:35;4.42;94.94
64599;SHT31;51008;51.504;11.548;2023-01-10T01:50:42;4.38;94.81
64599;SHT31;51008;51.504;11.548;2023-01-10T01:55:44;4.26;95.22
64599;SHT31;51008;51.504;11.548;2023-01-10T02:00:46;4.09;95.39
64599;SHT31;51008;51.504;11.548;2023-01-10T02:05:47;3.99;96.15
64599;SHT31;51008;51.504;11.548;2023-01-10T02:11:02;4.01;96.14
64599;SHT31;51008;51.504;11.548;2023-01-10T02:16:05;3.99;96.54
64599;SHT31;51008;51.504;11.548;2023-01-10T02:21:23;3.98;96.35
64599;SHT31;51008;51.504;11.548;2023-01-10T02:26:49;3.93;96.55
64599;SHT31;51008;51.504;11.548;2023-01-10T02:32:24;3.90;96.04
64599;SHT31;51008;51.504;11.548;2023-01-10T02:43:20;3.85;97.13
64599;SHT31;51008;51.504;11.548;2023-01-10T02:48:22;4.08;97.32
64599;SHT31;51008;51.504;11.548;2023-01-10T02:53:30;4.32;96.91
64599;SHT31;51008;51.504;11.548;2023-01-10T03:09:29;4.52;95.59
64599;SHT31;51008;51.504;11.548;2023-01-10T03:14:32;4.56;95.64
64599;SHT31;51008;51.504;11.548;2023-01-10T03:19:55;4.49;95.65
64599;SHT31;51008;51.504;11.548;2023-01-10T03:24:58;4.53;95.39
64599;SHT31;51008;51.504;11.548;2023-01-10T03:35:09;4.54;95.53
64599;SHT31;51008;51.504;11.548;2023-01-10T03:40:15;4.54;95.72
64599;SHT31;51008;51.504;11.548;2023-01-10T03:45:27;4.54;95.88
64599;SHT31;51008;51.504;11.548;2023-01-10T03:50:31;4.56;95.94
64599;SHT31;51008;51.504;11.548;2023-01-10T03:55:33;4.46;95.73
64599;SHT31;51008;51.504;11.548;2023-01-10T04:00:35;4.40;95.68
64599;SHT31;51008;51.504;11.548;2023-01-10T04:05:36;4.30;96.06
64599;SHT31;51008;51.504;11.548;2023-01-10T04:10:37;4.28;96.04
64599;SHT31;51008;51.504;11.548;2023-01-10T04:15:38;4.33;96.14
64599;SHT31;51008;51.504;11.548;2023-01-10T04:20:39;4.40;96.10
64599;SHT31;51008;51.504;11.548;2023-01-10T04:25:40;4.53;96.14
64599;SHT31;51008;51.504;11.548;2023-01-10T04:30:44;4.56;95.96
64599;SHT31;51008;51.504;11.548;2023-01-10T04:35:49;4.46;95.80
64599;SHT31;51008;51.504;11.548;2023-01-10T04:40:55;4.36;95.86
64599;SHT31;51008;51.504;11.548;2023-01-10T04:45:56;4.39;95.84
64599;SHT31;51008;51.504;11.548;2023-01-10T04:50:57;4.30;95.79
64599;SHT31;51008;51.504;11.548;2023-01-10T04:56:03;4.38;95.91
64599;SHT31;51008;51.504;11.548;2023-01-10T05:01:09;4.32;95.90
64599;SHT31;51008;51.504;11.548;2023-01-10T05:06:10;4.22;95.95
64599;SHT31;51008;51.504;11.548;2023-01-10T05:11:11;4.22;96.32
64599;SHT31;51008;51.504;11.548;2023-01-10T05:16:13;4.23;96.31
64599;SHT31;51008;51.504;11.548;2023-01-10T05:21:14;4.21;95.88
64599;SHT31;51008;51.504;11.548;2023-01-10T05:26:17;4.08;95.71
64599;SHT31;51008;51.504;11.548;2023-01-10T05:31:19;4.04;96.21
64599;SHT31;51008;51.504;11.548;2023-01-10T05:36:20;4.13;96.14
64599;SHT31;51008;51.504;11.548;2023-01-10T05:41:21;4.21;96.44
64599;SHT31;51008;51.504;11.548;2023-01-10T05:46:22;4.26;96.37
64599;SHT31;51008;51.504;11.548;2023-01-10T05:51:23;4.32;95.96
64599;SHT31;51008;51.504;11.548;2023-01-10T05:56:25;4.30;95.70
64599;SHT31;51008;51.504;11.548;2023-01-10T06:01:26;4.38;96.00
64599;SHT31;51008;51.504;11.548;2023-01-10T06:06:27;4.49;95.94
64599;SHT31;51008;51.504;11.548;2023-01-10T06:11:28;4.64;95.34
64599;SHT31;51008;51.504;11.548;2023-01-10T06:16:29;4.64;95.17
64599;SHT31;51008;51.504;11.548;2023-01-10T06:21:30;4.75;94.66
64599;SHT31;51008;51.504;11.548;2023-01-10T06:26:31;4.73;94.34
64599;SHT31;51008;51.504;11.548;2023-01-10T06:31:32;4.66;94.13
64599;SHT31;51008;51.504;11.548;2023-01-10T06:36:33;4.54;94.04
64599;SHT31;51008;51.504;11.548;2023-01-10T06:41:34;4.46;93.91
64599;SHT31;51008;51.504;11.548;2023-01-10T06:46:35;4.26;93.86
64599;SHT31;51008;51.504;11.548;2023-01-10T06:51:36;4.05;94.64
64599;SHT31;51008;51.504;11.548;2023-01-10T06:56:37;4.04;94.66
64599;SHT31;51008;51.504;11.548;2023-01-10T07:01:38;4.02;94.77
64599;SHT31;51008;51.504;11.548;2023-01-10T07:06:39;4.09;94.80
64599;SHT31;51008;51.504;11.548;2023-01-10T07:11:40;4.18;94.94
64599;SHT31;51008;51.504;11.548;2023-01-10T07:16:41;4.32;94.93
64599;SHT31;51008;51.504;11.548;2023-01-10T07:21:42;4.52;93.99
64599;SHT31;51008;51.504;11.548;2023-01-10T07:26:43;4.58;93.65
64599;SHT31;51008;51.504;11.548;2023-01-10T07:31:44;4.71;92.70
64599;SHT31;51008;51.504;11.548;2023-01-10T07:36:45;4.71;92.58
64599;SHT31;51008;51.504;11.548;2023-01-10T07:41:47;4.61;92.81
64599;SHT31;51008;51.504;11.548;2023-01-10T07:46:49;4.58;92.69
64599;SHT31;51008;51.504;11.548;2023-01-10T07:51:50;4.52;93.55
64599;SHT31;51008;51.504;11.548;2023-01-10T07:56:51;4.40;94.27
64599;SHT31;51008;51.504;11.548;2023-01-10T08:01:52;4.57;94.11
64599;SHT31;51008;51.504;11.548;2023-01-10T08:06:53;4.70;93.69
64599;SHT31;51008;51.504;11.548;2023-01-10T08:11:54;4.66;93.75
64599;SHT31;51008;51.504;11.548;2023-01-10T08:16:55;4.66;93.79
64599;SHT31;51008;51.504;11.548;2023-01-10T08:21:56;5.19;93.33
64599;SHT31;51008;51.504;11.548;2023-01-10T08:26:57;5.61;90.59
64599;SHT31;51008;51.504;11.548;2023-01-10T08:31:58;6.10;88.33
64599;SHT31;51008;51.504;11.548;2023-01-10T08:37:00;5.82;88.93
64599;SHT31;51008;51.504;11.548;2023-01-10T08:42:01;5.60;90.28
64599;SHT31;51008;51.504;11.548;2023-01-10T08:47:02;5.43;90.78
64599;SHT31;51008;51.504;11.548;2023-01-10T08:52:03;5.33;90.99
64599;SHT31;51008;51.504;11.548;2023-01-10T08:57:03;5.32;91.31
64599;SHT31;51008;51.504;11.548;2023-01-10T09:02:05;5.29;91.45
64599;SHT31;51008;51.504;11.548;2023-01-10T09:07:06;5.25;91.88
64599;SHT31;51008;51.504;11.548;2023-01-10T09:12:07;5.25;91.79
64599;SHT31;51008;51.504;11.548;2023-01-10T09:17:08;5.18;92.29
64599;SHT31;51008;51.504;11.548;2023-01-10T09:22:11;5.30;92.13
64599;SHT31;51008;51.504;11.548;2023-01-10T09:27:12;5.35;91.72
64599;SHT31;51008;51.504;11.548;2023-01-10T09:32:13;5.36;91.68
64599;SHT31;51008;51.504;11.548;2023-01-10T09:37:14;5.50;91.45
64599;SHT31;51008;51.504;11.548;2023-01-10T09:42:54;5.71;90.60
64599;SHT31;51008;51.504;11.548;2023-01-10T09:48:07;5.92;90.40
64599;SHT31;51008;51.504;11.548;2023-01-10T09:53:13;6.01;89.46
64599;SHT31;51008;51.504;11.548;2023-01-10T09:58:18;6.02;89.21
64599;SHT31;51008;51.504;11.548;2023-01-10T10:08:49;6.08;89.17
64599;SHT31;51008;51.504;11.548;2023-01-10T10:19:32;6.57;86.84
64599;SHT31;51008;51.504;11.548;2023-01-10T10:29:59;7.24;85.18
64599;SHT31;51008;51.504;11.548;2023-01-10T10:35:12;7.57;83.65
64599;SHT31;51008;51.504;11.548;2023-01-10T10:40:23;7.69;82.24
64599;SHT31;51008;51.504;11.548;2023-01-10T10:45:35;7.68;81.44
64599;SHT31;51008;51.504;11.548;2023-01-10T10:50:47;7.58;82.20
64599;SHT31;51008;51.504;11.548;2023-01-10T10:55:50;7.33;82.67
64599;SHT31;51008;51.504;11.548;2023-01-10T11:00:51;7.61;82.41
64599;SHT31;51008;51.504;11.548;2023-01-10T11:05:52;7.14;82.66
64599;SHT31;51008;51.504;11.548;2023-01-10T11:10:56;6.82;84.35
64599;SHT31;51008;51.504;11.548;2023-01-10T11:15:59;6.58;85.46
64599;SHT31;51008;51.504;11.548;2023-01-10T11:21:14;6.51;85.45
64599;SHT31;51008;51.504;11.548;2023-01-10T11:26:27;6.54;85.53
64599;SHT31;51008;51.504;11.548;2023-01-10T11:31:30;6.51;86.56
64599;SHT31;51008;51.504;11.548;2023-01-10T11:36:53;6.55;85.62
64599;SHT31;51008;51.504;11.548;2023-01-10T11:41:54;6.43;86.15
64599;SHT31;51008;51.504;11.548;2023-01-10T11:46:58;6.45;86.32
64599;SHT31;51008;51.504;11.548;2023-01-10T11:52:22;6.51;85.82
64599;SHT31;51008;51.504;11.548;2023-01-10T11:57:26;6.58;86.32
64599;SHT31;51008;51.504;11.548;2023-01-10T12:02:34;6.57;86.25
64599;SHT31;51008;51.504;11.548;2023-01-10T12:08:01;6.61;86.46
64599;SHT31;51008;51.504;11.548;2023-01-10T12:13:15;6.52;87.39
64599;SHT31;51008;51.504;11.548;2023-01-10T12:18:17;6.38;89.21
64599;SHT31;51008;51.504;11.548;2023-01-10T12:23:21;6.32;89.69
64599;SHT31;51008;51.504;11.548;2023-01-10T12:28:27;6.32;90.51
64599;SHT31;51008;51.504;11.548;2023-01-10T12:33:34;6.44;89.79
64599;SHT31;51008;51.504;11.548;2023-01-10T12:39:01;6.37;89.84
64599;SHT31;51008;51.504;11.548;2023-01-10T12:44:04;6.43;89.26
64599;SHT31;51008;51.504;11.548;2023-01-10T12:54:21;6.45;88.90
64599;SHT31;51008;51.504;11.548;2023-01-10T12:59:27;6.55;88.10
64599;SHT31;51008;51.504;11.548;2023-01-10T13:04:30;6.50;88.11
64599;SHT31;51008;51.504;11.548;2023-01-10T13:09:34;6.54;87.96
64599;SHT31;51008;51.504;11.548;2023-01-10T13:19:43;6.63;88.50
64599;SHT31;51008;51.504;11.548;2023-01-10T13:24:57;6.69;87.18
64599;SHT31;51008;51.504;11.548;2023-01-10T13:29:59;6.71;87.08
64599;SHT31;51008;51.504;11.548;2023-01-10T13:35:15;6.67;85.56
64599;SHT31;51008;51.504;11.548;2023-01-10T13:40:23;6.65;86.04
64599;SHT31;51008;51.504;11.548;2023-01-10T13:45:27;6.55;85.44
64599;SHT31;51008;51.504;11.548;2023-01-10T13:55:53;6.30;86.48
64599;SHT31;51008;51.504;11.548;2023-01-10T14:00:58;6.26;86.21
64599;SHT31;51008;51.504;11.548;2023-01-10T14:06:00;6.29;86.20
64599;SHT31;51008;51.504;11.548;2023-01-10T14:11:10;6.20;86.34
64599;SHT31;51008;51.504;11.548;2023-01-10T14:16:33;6.16;86.44
64599;SHT31;51008;51.504;11.548;2023-01-10T14:21:40;6.15;86.20
64599;SHT31;51008;51.504;11.548;2023-01-10T14:26:42;6.09;86.28
64599;SHT31;51008;51.504;11.548;2023-01-10T14:31:45;6.08;86.90
64599;SHT31;51008;51.504;11.548;2023-01-10T14:37:14;6.05;86.79
64599;SHT31;51008;51.504;11.548;2023-01-10T14:42:19;5.99;86.78
64599;SHT31;51008;51.504;11.548;2023-01-10T14:47:33;5.95;86.26
64599;SHT31;51008;51.504;11.548;2023-01-10T14:52:34;5.87;86.30
64599;SHT31;51008;51.504;11.548;2023-01-10T14:57:35;5.85;86.03
64599;SHT31;51008;51.504;11.548;2023-01-10T15:02:37;5.82;86.38
64599;SHT31;51008;51.504;11.548;2023-01-10T15:07:42;5.77;86.40
64599;SHT31;51008;51.504;11.548;2023-01-10T15:12:44;5.74;86.40
64599;SHT31;51008;51.504;11.548;2023-01-10T15:17:46;5.63;86.21
64599;SHT31;51008;51.504;11.548;2023-01-10T15:22:58;5.55;85.89
64599;SHT31;51008;51.504;11.548;2023-01-10T15:28:00;5.55;86.10
64599;SHT31;51008;51.504;11.548;2023-01-10T15:33:04;5.50;86.69
64599;SHT31;51008;51.504;11.548;2023-01-10T15:38:18;5.42;86.78
64599;SHT31;51008;51.504;11.548;2023-01-10T15:43:24;5.36;86.83
64599;SHT31;51008;51.504;11.548;2023-01-10T15:48:35;5.25;87.24
64599;SHT31;51008;51.504;11.548;2023-01-10T15:54:03;5.15;87.25
64599;SHT31;51008;51.504;11.548;2023-01-10T15:59:19;5.11;87.37
64599;SHT31;51008;51.504;11.548;2023-01-10T16:04:22;5.04;87.42
64599;SHT31;51008;51.504;11.548;2023-01-10T16:09:23;4.96;87.68
64599;SHT31;51008;51.504;11.548;2023-01-10T16:14:24;4.94;87.83
64599;SHT31;51008;51.504;11.548;2023-01-10T16:19:25;4.89;87.70
64599;SHT31;51008;51.504;11.548;2023-01-10T16:24:29;4.80;87.73
64599;SHT31;51008;51.504;11.548;2023-01-10T16:29:31;4.74;87.90
64599;SHT31;51008;51.504;11.548;2023-01-10T16:34:32;4.70;88.15
64599;SHT31;51008;51.504;11.548;2023-01-10T16:39:33;4.66;88.64
64599;SHT31;51008;51.504;11.548;2023-01-10T16:44:34;4.68;88.99
64599;SHT31;51008;51.504;11.548;2023-01-10T16:49:35;4.66;88.86
64599;SHT31;51008;51.504;11.548;2023-01-10T16:54:37;4.68;88.71
64599;SHT31;51008;51.504;11.548;2023-01-10T16:59:38;4.66;88.68
64599;SHT31;51008;51.504;11.548;2023-01-10T17:04:39;4.67;88.57
64599;SHT31;51008;51.504;11.548;2023-01-10T17:09:40;4.66;88.74
64599;SHT31;51008;51.504;11.548;2023-01-10T17:14:41;4.67;88.66
64599;SHT31;51008;51.504;11.548;2023-01-10T17:19:42;4.61;88.74
64599;SHT31;51008;51.504;11.548;2023-01-10T17:24:43;4.60;88.85
64599;SHT31;51008;51.504;11.548;2023-01-10T17:29:44;4.66;88.50
64599;SHT31;51008;51.504;11.548;2023-01-10T17:34:44;4.70;87.96
64599;SHT31;51008;51.504;11.548;2023-01-10T17:39:45;4.71;87.97
64599;SHT31;51008;51.504;11.548;2023-01-10T17:44:48;4.68;87.84
64599;SHT31;51008;51.504;11.548;2023-01-10T17:49:49;4.68;87.74
64599;SHT31;51008;51.504;11.548;2023-01-10T17:54:50;4.75;87.07
64599;SHT31;51008;51.504;11.548;2023-01-10T17:59:52;4.71;87.30
64599;SHT31;51008;51.504;11.548;2023-01-10T18:04:55;4.75;86.90
64599;SHT31;51008;51.504;11.548;2023-01-10T18:09:56;4.74;86.91
64599;SHT31;51008;51.504;11.548;2023-01-10T18:14:57;4.77;86.59
64599;SHT31;51008;51.504;11.548;2023-01-10T18:19:58;4.75;86.79
64599;SHT31;51008;51.504;11.548;2023-01-10T18:24:59;4.87;85.87
64599;SHT31;51008;51.504;11.548;2023-01-10T18:30:00;4.88;85.82
64599;SHT31;51008;51.504;11.548;2023-01-10T18:35:01;4.89;85.63
64599;SHT31;51008;51.504;11.548;2023-01-10T18:40:03;4.85;85.41
64599;SHT31;51008;51.504;11.548;2023-01-10T18:45:05;4.88;85.67
64599;SHT31;51008;51.504;11.548;2023-01-10T18:50:06;4.83;85.51
64599;SHT31;51008;51.504;11.548;2023-01-10T18:55:08;4.81;85.46
64599;SHT31;51008;51.504;11.548;2023-01-10T19:00:09;4.77;85.61
64599;SHT31;51008;51.504;11.548;2023-01-10T19:05:11;4.74;85.39
64599;SHT31;51008;51.504;11.548;2023-01-10T19:10:12;4.73;85.37
64599;SHT31;51008;51.504;11.548;2023-01-10T19:15:12;4.77;84.87
64599;SHT31;51008;51.504;11.548;2023-01-10T19:20:13;4.75;85.04
64599;SHT31;51008;51.504;11.548;2023-01-10T19:25:15;4.74;84.73
64599;SHT31;51008;51.504;11.548;2023-01-10T19:30:16;4.77;84.59
64599;SHT31;51008;51.504;11.548;2023-01-10T19:35:17;4.80;83.80
64599;SHT31;51008;51.504;11.548;2023-01-10T19:40:21;4.91;83.02
64599;SHT31;51008;51.504;11.548;2023-01-10T19:45:22;4.84;83.65
64599;SHT31;51008;51.504;11.548;2023-01-10T19:50:23;4.92;82.92
64599;SHT31;51008;51.504;11.548;2023-01-10T19:55:24;4.92;83.11
64599;SHT31;51008;51.504;11.548;2023-01-10T20:00:24;4.89;82.98
64599;SHT31;51008;51.504;11.548;2023-01-10T20:05:25;4.78;83.43
64599;SHT31;51008;51.504;11.548;2023-01-10T20:10:26;4.77;83.54
64599;SHT31;51008;51.504;11.548;2023-01-10T20:15:27;4.78;82.90
64599;SHT31;51008;51.504;11.548;2023-01-10T20:20:28;4.81;82.73
64599;SHT31;51008;51.504;11.548;2023-01-10T20:25:29;4.87;82.20
64599;SHT31;51008;51.504;11.548;2023-01-10T20:30:30;4.88;81.77
64599;SHT31;51008;51.504;11.548;2023-01-10T20:35:31;4.89;81.57
64599;SHT31;51008;51.504;11.548;2023-01-10T20:40:32;4.80;82.50
64599;SHT31;51008;51.504;11.548;2023-01-10T20:45:33;4.80;82.74
64599;SHT31;51008;51.504;11.548;2023-01-10T20:50:34;4.83;82.70
64599;SHT31;51008;51.504;11.548;2023-01-10T20:55:36;4.81;82.53
64599;SHT31;51008;51.504;11.548;2023-01-10T21:00:37;4.88;82.22
64599;SHT31;51008;51.504;11.548;2023-01-10T21:05:38;4.85;82.53
64599;SHT31;51008;51.504;11.548;2023-01-10T21:10:42;4.85;82.85
64599;SHT31;51008;51.504;11.548;2023-01-10T21:15:44;4.83;82.86
64599;SHT31;51008;51.504;11.548;2023-01-10T21:20:46;4.94;82.21
64599;SHT31;51008;51.504;11.548;2023-01-10T21:25:47;4.92;82.22
64599;SHT31;51008;51.504;11.548;2023-01-10T21:30:48;4.92;82.45
64599;SHT31;51008;51.504;11.548;2023-01-10T21:35:53;4.96;81.87
64599;SHT31;51008;51.504;11.548;2023-01-10T21:40:56;5.02;81.71
64599;SHT31;51008;51.504;11.548;2023-01-10T21:45:58;5.09;81.57
64599;SHT31;51008;51.504;11.548;2023-01-10T21:50:59;5.09;81.96
64599;SHT31;51008;51.504;11.548;2023-01-10T21:56:00;5.11;82.09
64599;SHT31;51008;51.504;11.548;2023-01-10T22:01:01;5.16;82.21
64599;SHT31;51008;51.504;11.548;2023-01-10T22:06:02;5.18;82.23
64599;SHT31;51008;51.504;11.548;2023-01-10T22:11:03;5.11;83.38
64599;SHT31;51008;51.504;11.548;2023-01-10T22:16:04;5.04;84.35
64599;SHT31;51008;51.504;11.548;2023-01-10T22:21:05;4.98;85.73
64599;SHT31;51008;51.504;11.548;2023-01-10T22:26:09;4.89;87.05
64599;SHT31;51008;51.504;11.548;2023-01-10T22:31:10;4.75;88.04
64599;SHT31;51008;51.504;11.548;2023-01-10T22:36:14;4.71;88.65
64599;SHT31;51008;51.504;11.548;2023-01-10T22:41:17;4.70;89.37
64599;SHT31;51008;51.504;11.548;2023-01-10T22:46:19;4.64;89.73
64599;SHT31;51008;51.504;11.548;2023-01-10T22:51:21;4.64;89.75
64599;SHT31;51008;51.504;11.548;2023-01-10T22:56:22;4.54;90.54
64599;SHT31;51008;51.504;11.548;2023-01-10T23:01:24;4.50;91.04
64599;SHT31;51008;51.504;11.548;2023-01-10T23:06:25;4.50;91.59
64599;SHT31;51008;51.504;11.548;2023-01-10T23:11:26;4.47;91.59
64599;SHT31;51008;51.504;11.548;2023-01-10T23:16:27;4.49;91.25
64599;SHT31;51008;51.504;11.548;2023-01-10T23:21:28;4.47;91.60
64599;SHT31;51008;51.504;11.548;2023-01-10T23:26:29;4.42;91.87
64599;SHT31;51008;51.504;11.548;2023-01-10T23:31:30;4.42;92.03
64599;SHT31;51008;51.504;11.548;2023-01-10T23:36:31;4.46;91.52
64599;SHT31;51008;51.504;11.548;2023-01-10T23:41:32;4.42;92.09
64599;SHT31;51008;51.504;11.548;2023-01-10T23:46:33;4.38;92.43
64599;SHT31;51008;51.504;11.548;2023-01-10T23:51:34;4.40;91.94
64599;SHT31;51008;51.504;11.548;2023-01-10T23:56:35;4.43;91.38
